sensor_id;sensor_type;location;lat;lon;timestamp;temperature;humidity
4596;DHT22;2310;49.978;8.742;2023-03-01T00:01:49;2.10;99.90
4596;DHT22;2310;49.978;8.742;2023-03-01T00:05:51;2.10;99.90
4596;DHT22;2310;49.978;8.742;2023-03-01T00:09:52;2.10;99.90
4596;DHT22;2310;49.978;8.742;2023-03-01T00:13:55;1.90;99.90
4596;DHT22;2310;49.978;8.742;2023-03-01T00:17:57;2.00;99.90
4596;DHT22;2310;49.978;8.742;2023-03-01T00:21:58;2.00;99.90
4596;DHT22;2310;49.978;8.742;2023-03-01T00:25:59;2.00;99.90
4596;DHT22;2310;49.978;8.742;2023-03-01T00:30:00;2.10;99.90
4596;DHT22;2310;49.978;8.742;2023-03-01T00:34:04;2.10;99.90
4596;DHT22;2310;49.978;8.742;2023-03-01T00:38:06;2.20;99.90
4596;DHT22;2310;49.978;8.742;2023-03-01T00:42:07;2.30;99.90
4596;DHT22;2310;49.978;8.742;2023-03-01T00:46:15;2.30;99.90
4596;DHT22;2310;49.978;8.742;2023-03-01T00:50:16;2.20;99.90
4596;DHT22;2310;49.978;8.742;2023-03-01T00:54:18;2.30;99.90
4596;DHT22;2310;49.978;8.742;2023-03-01T00:58:19;2.40;99.90
4596;DHT22;2310;49.978;8.742;2023-03-01T01:02:20;2.40;99.90
4596;DHT22;2310;49.978;8.742;2023-03-01T01:06:27;2.50;99.90
4596;DHT22;2310;49.978;8.742;2023-03-01T01:10:29;2.50;99.90
4596;DHT22;2310;49.978;8.742;2023-03-01T01:14:31;2.60;99.90
4596;DHT22;2310;49.978;8.742;2023-03-01T01:18:32;2.20;99.90
4596;DHT22;2310;49.978;8.742;2023-03-01T01:22:33;2.30;99.90
4596;DHT22;2310;49.978;8.742;2023-03-01T01:26:35;2.40;99.90
4596;DHT22;2310;49.978;8.742;2023-03-01T01:30:36;2.20;99.90
4596;DHT22;2310;49.978;8.742;2023-03-01T01:34:37;2.30;99.90
4596;DHT22;2310;49.978;8.742;2023-03-01T01:38:39;2.10;99.90
4596;DHT22;2310;49.978;8.742;2023-03-01T01:42:41;2.40;99.90
4596;DHT22;2310;49.978;8.742;2023-03-01T01:51:02;2.20;99.90
4596;DHT22;2310;49.978;8.742;2023-03-01T01:55:08;2.20;99.90
4596;DHT22;2310;49.978;8.742;2023-03-01T01:59:12;2.30;99.90
4596;DHT22;2310;49.978;8.742;2023-03-01T02:03:17;2.30;99.90
4596;DHT22;2310;49.978;8.742;2023-03-01T02:07:21;2.20;99.90
4596;DHT22;2310;49.978;8.742;2023-03-01T02:11:23;2.10;99.90
4596;DHT22;2310;49.978;8.742;2023-03-01T02:15:25;2.20;99.90
4596;DHT22;2310;49.978;8.742;2023-03-01T02:19:50;2.20;99.90
4596;DHT22;2310;49.978;8.742;2023-03-01T02:23:47;2.30;99.90
4596;DHT22;2310;49.978;8.742;2023-03-01T02:31:56;2.40;99.90
4596;DHT22;2310;49.978;8.742;2023-03-01T02:35:59;2.40;99.90
4596;DHT22;2310;49.978;8.742;2023-03-01T02:40:04;2.20;99.90
4596;DHT22;2310;49.978;8.742;2023-03-01T02:44:06;2.00;99.90
4596;DHT22;2310;49.978;8.742;2023-03-01T02:48:09;2.00;99.90
4596;DHT22;2310;49.978;8.742;2023-03-01T02:56:36;1.90;99.90
4596;DHT22;2310;49.978;8.742;2023-03-01T03:00:40;2.00;99.90
4596;DHT22;2310;49.978;8.742;2023-03-01T03:04:44;2.20;99.90
4596;DHT22;2310;49.978;8.742;2023-03-01T03:08:45;2.10;99.90
4596;DHT22;2310;49.978;8.742;2023-03-01T03:12:51;2.00;99.90
4596;DHT22;2310;49.978;8.742;2023-03-01T03:16:53;2.10;99.90
4596;DHT22;2310;49.978;8.742;2023-03-01T03:20:54;2.10;99.90
4596;DHT22;2310;49.978;8.742;2023-03-01T03:24:55;2.10;99.90
4596;DHT22;2310;49.978;8.742;2023-03-01T03:28:57;1.90;99.90
4596;DHT22;2310;49.978;8.742;2023-03-01T03:32:59;1.80;99.90
4596;DHT22;2310;49.978;8.742;2023-03-01T03:37:00;1.80;99.90
4596;DHT22;2310;49.978;8.742;2023-03-01T03:41:04;1.80;99.90
4596;DHT22;2310;49.978;8.742;2023-03-01T03:45:06;1.80;99.90
4596;DHT22;2310;49.978;8.742;2023-03-01T03:49:08;1.80;99.90
4596;DHT22;2310;49.978;8.742;2023-03-01T03:53:11;1.90;99.90
4596;DHT22;2310;49.978;8.742;2023-03-01T03:57:12;1.90;99.90
4596;DHT22;2310;49.978;8.742;2023-03-01T04:01:13;1.70;99.90
4596;DHT22;2310;49.978;8.742;2023-03-01T04:09:34;1.50;99.90
4596;DHT22;2310;49.978;8.742;2023-03-01T04:13:35;1.50;99.90
4596;DHT22;2310;49.978;8.742;2023-03-01T04:17:37;1.50;99.90
4596;DHT22;2310;49.978;8.742;2023-03-01T04:21:38;1.70;99.90
4596;DHT22;2310;49.978;8.742;2023-03-01T04:25:47;1.50;99.90
4596;DHT22;2310;49.978;8.742;2023-03-01T04:29:53;1.60;99.90
4596;DHT22;2310;49.978;8.742;2023-03-01T04:33:55;1.50;99.90
4596;DHT22;2310;49.978;8.742;2023-03-01T04:37:56;1.50;99.90
4596;DHT22;2310;49.978;8.742;2023-03-01T04:41:58;1.70;99.90
4596;DHT22;2310;49.978;8.742;2023-03-01T04:46:08;1.60;99.90
4596;DHT22;2310;49.978;8.742;2023-03-01T04:50:11;1.70;99.90
4596;DHT22;2310;49.978;8.742;2023-03-01T04:54:13;1.70;99.90
4596;DHT22;2310;49.978;8.742;2023-03-01T04:58:14;1.50;99.90
4596;DHT22;2310;49.978;8.742;2023-03-01T05:02:15;1.60;99.90
4596;DHT22;2310;49.978;8.742;2023-03-01T05:06:17;1.70;99.90
4596;DHT22;2310;49.978;8.742;2023-03-01T05:10:19;1.70;99.90
4596;DHT22;2310;49.978;8.742;2023-03-01T05:14:20;1.80;99.90
4596;DHT22;2310;49.978;8.742;2023-03-01T05:18:22;1.90;99.90
4596;DHT22;2310;49.978;8.742;2023-03-01T05:22:25;1.90;99.90
4596;DHT22;2310;49.978;8.742;2023-03-01T05:26:27;1.80;99.90
4596;DHT22;2310;49.978;8.742;2023-03-01T05:30:33;1.70;99.90
4596;DHT22;2310;49.978;8.742;2023-03-01T05:34:35;1.60;99.90
4596;DHT22;2310;49.978;8.742;2023-03-01T05:38:37;1.60;99.90
4596;DHT22;2310;49.978;8.742;2023-03-01T05:42:38;1.60;99.90
4596;DHT22;2310;49.978;8.742;2023-03-01T05:46:39;1.50;99.90
4596;DHT22;2310;49.978;8.742;2023-03-01T05:50:43;1.50;99.90
4596;DHT22;2310;49.978;8.742;2023-03-01T05:54:45;1.50;99.90
4596;DHT22;2310;49.978;8.742;2023-03-01T05:58:48;1.40;99.90
4596;DHT22;2310;49.978;8.742;2023-03-01T06:02:50;1.50;99.90
4596;DHT22;2310;49.978;8.742;2023-03-01T06:06:52;1.50;99.90
4596;DHT22;2310;49.978;8.742;2023-03-01T06:10:54;1.40;99.90
4596;DHT22;2310;49.978;8.742;2023-03-01T06:14:55;1.30;99.90
4596;DHT22;2310;49.978;8.742;2023-03-01T06:18:56;1.40;99.90
4596;DHT22;2310;49.978;8.742;2023-03-01T06:22:57;1.40;99.90
4596;DHT22;2310;49.978;8.742;2023-03-01T06:26:58;1.40;99.90
4596;DHT22;2310;49.978;8.742;2023-03-01T06:30:59;1.50;99.90
4596;DHT22;2310;49.978;8.742;2023-03-01T06:35:01;1.50;99.90
4596;DHT22;2310;49.978;8.742;2023-03-01T06:39:02;1.60;99.90
4596;DHT22;2310;49.978;8.742;2023-03-01T06:43:04;1.70;99.90
4596;DHT22;2310;49.978;8.742;2023-03-01T06:47:05;1.80;99.90
4596;DHT22;2310;49.978;8.742;2023-03-01T06:51:06;1.90;99.90
4596;DHT22;2310;49.978;8.742;2023-03-01T06:55:07;2.00;99.90
4596;DHT22;2310;49.978;8.742;2023-03-01T06:59:09;2.10;99.90
4596;DHT22;2310;49.978;8.742;2023-03-01T07:03:10;2.20;99.90
4596;DHT22;2310;49.978;8.742;2023-03-01T07:07:11;2.40;99.90
4596;DHT22;2310;49.978;8.742;2023-03-01T07:11:12;2.30;99.90
4596;DHT22;2310;49.978;8.742;2023-03-01T07:15:14;2.30;99.90
4596;DHT22;2310;49.978;8.742;2023-03-01T07:19:16;2.30;99.90
4596;DHT22;2310;49.978;8.742;2023-03-01T07:23:17;2.50;99.90
4596;DHT22;2310;49.978;8.742;2023-03-01T07:27:18;2.50;99.90
4596;DHT22;2310;49.978;8.742;2023-03-01T07:31:19;2.60;99.90
4596;DHT22;2310;49.978;8.742;2023-03-01T07:35:22;2.60;99.90
4596;DHT22;2310;49.978;8.742;2023-03-01T07:39:24;2.60;99.90
4596;DHT22;2310;49.978;8.742;2023-03-01T07:43:26;2.90;99.90
4596;DHT22;2310;49.978;8.742;2023-03-01T07:47:28;3.20;99.90
4596;DHT22;2310;49.978;8.742;2023-03-01T07:51:29;3.40;99.90
4596;DHT22;2310;49.978;8.742;2023-03-01T07:55:30;3.90;99.90
4596;DHT22;2310;49.978;8.742;2023-03-01T07:59:31;3.80;99.90
4596;DHT22;2310;49.978;8.742;2023-03-01T08:03:34;4.20;99.90
4596;DHT22;2310;49.978;8.742;2023-03-01T08:07:36;4.60;99.90
4596;DHT22;2310;49.978;8.742;2023-03-01T08:11:37;4.70;99.90
4596;DHT22;2310;49.978;8.742;2023-03-01T08:15:38;4.80;99.90
4596;DHT22;2310;49.978;8.742;2023-03-01T08:19:39;5.00;99.90
4596;DHT22;2310;49.978;8.742;2023-03-01T08:23:41;4.90;99.90
4596;DHT22;2310;49.978;8.742;2023-03-01T08:27:43;5.20;99.90
4596;DHT22;2310;49.978;8.742;2023-03-01T08:31:44;5.50;99.50
4596;DHT22;2310;49.978;8.742;2023-03-01T08:35:45;5.60;98.10
4596;DHT22;2310;49.978;8.742;2023-03-01T08:39:47;5.70;97.90
4596;DHT22;2310;49.978;8.742;2023-03-01T08:43:48;5.90;96.00
4596;DHT22;2310;49.978;8.742;2023-03-01T08:47:52;5.90;95.80
4596;DHT22;2310;49.978;8.742;2023-03-01T08:51:54;6.20;94.10
4596;DHT22;2310;49.978;8.742;2023-03-01T08:55:59;5.90;94.20
4596;DHT22;2310;49.978;8.742;2023-03-01T09:00:00;6.10;94.00
4596;DHT22;2310;49.978;8.742;2023-03-01T09:04:01;6.40;98.60
4596;DHT22;2310;49.978;8.742;2023-03-01T09:08:03;6.60;93.30
4596;DHT22;2310;49.978;8.742;2023-03-01T09:12:05;6.40;92.40
4596;DHT22;2310;49.978;8.742;2023-03-01T09:16:07;6.40;92.30
4596;DHT22;2310;49.978;8.742;2023-03-01T09:20:10;6.80;93.50
4596;DHT22;2310;49.978;8.742;2023-03-01T09:24:13;6.70;91.60
4596;DHT22;2310;49.978;8.742;2023-03-01T09:28:15;6.80;90.50
4596;DHT22;2310;49.978;8.742;2023-03-01T09:32:18;6.70;89.30
4596;DHT22;2310;49.978;8.742;2023-03-01T09:36:22;6.90;90.60
4596;DHT22;2310;49.978;8.742;2023-03-01T09:40:26;6.90;88.90
4596;DHT22;2310;49.978;8.742;2023-03-01T09:48:56;7.20;84.20
4596;DHT22;2310;49.978;8.742;2023-03-01T09:53:04;7.50;85.10
4596;DHT22;2310;49.978;8.742;2023-03-01T09:57:25;7.90;79.40
4596;DHT22;2310;49.978;8.742;2023-03-01T10:06:10;8.30;74.40
4596;DHT22;2310;49.978;8.742;2023-03-01T10:10:28;8.00;74.60
4596;DHT22;2310;49.978;8.742;2023-03-01T10:14:40;8.30;73.80
4596;DHT22;2310;49.978;8.742;2023-03-01T10:18:43;8.50;70.60
4596;DHT22;2310;49.978;8.742;2023-03-01T10:22:47;8.30;69.60
4596;DHT22;2310;49.978;8.742;2023-03-01T10:26:56;8.60;70.30
4596;DHT22;2310;49.978;8.742;2023-03-01T10:30:59;8.60;68.20
4596;DHT22;2310;49.978;8.742;2023-03-01T10:35:01;8.80;69.10
4596;DHT22;2310;49.978;8.742;2023-03-01T10:39:05;8.70;67.20
4596;DHT22;2310;49.978;8.742;2023-03-01T10:43:10;8.60;64.80
4596;DHT22;2310;49.978;8.742;2023-03-01T10:47:21;8.70;65.00
4596;DHT22;2310;49.978;8.742;2023-03-01T10:51:23;8.80;65.80
4596;DHT22;2310;49.978;8.742;2023-03-01T10:55:36;8.90;61.80
4596;DHT22;2310;49.978;8.742;2023-03-01T10:59:38;8.90;61.40
4596;DHT22;2310;49.978;8.742;2023-03-01T11:03:39;9.00;61.60
4596;DHT22;2310;49.978;8.742;2023-03-01T11:07:56;9.30;61.80
4596;DHT22;2310;49.978;8.742;2023-03-01T11:12:00;9.60;59.00
4596;DHT22;2310;49.978;8.742;2023-03-01T11:16:05;9.50;59.00
4596;DHT22;2310;49.978;8.742;2023-03-01T11:24:18;9.60;55.80
4596;DHT22;2310;49.978;8.742;2023-03-01T11:28:21;9.60;56.60
4596;DHT22;2310;49.978;8.742;2023-03-01T11:32:25;9.70;55.90
4596;DHT22;2310;49.978;8.742;2023-03-01T11:36:36;9.60;55.90
4596;DHT22;2310;49.978;8.742;2023-03-01T11:40:44;9.80;54.20
4596;DHT22;2310;49.978;8.742;2023-03-01T11:44:49;10.10;53.80
4596;DHT22;2310;49.978;8.742;2023-03-01T12:06:44;10.30;50.30
4596;DHT22;2310;49.978;8.742;2023-03-01T12:10:43;10.50;49.30
4596;DHT22;2310;49.978;8.742;2023-03-01T12:19:26;10.90;48.10
4596;DHT22;2310;49.978;8.742;2023-03-01T12:23:48;11.00;46.70
4596;DHT22;2310;49.978;8.742;2023-03-01T12:27:51;10.90;47.00
4596;DHT22;2310;49.978;8.742;2023-03-01T12:32:15;10.80;46.20
4596;DHT22;2310;49.978;8.742;2023-03-01T12:40:46;10.40;46.60
4596;DHT22;2310;49.978;8.742;2023-03-01T12:52:59;11.00;48.40
4596;DHT22;2310;49.978;8.742;2023-03-01T13:01:45;11.10;48.20
4596;DHT22;2310;49.978;8.742;2023-03-01T13:18:30;10.50;47.60
4596;DHT22;2310;49.978;8.742;2023-03-01T13:22:32;10.80;48.60
4596;DHT22;2310;49.978;8.742;2023-03-01T13:30:58;11.00;47.00
4596;DHT22;2310;49.978;8.742;2023-03-01T13:35:02;10.90;45.00
4596;DHT22;2310;49.978;8.742;2023-03-01T13:39:29;11.10;45.80
4596;DHT22;2310;49.978;8.742;2023-03-01T13:43:34;10.80;46.20
4596;DHT22;2310;49.978;8.742;2023-03-01T13:47:38;10.50;45.90
4596;DHT22;2310;49.978;8.742;2023-03-01T13:51:39;10.80;46.30
4596;DHT22;2310;49.978;8.742;2023-03-01T13:55:43;10.80;45.50
4596;DHT22;2310;49.978;8.742;2023-03-01T13:59:47;10.70;45.90
4596;DHT22;2310;49.978;8.742;2023-03-01T14:03:48;10.80;46.30
4596;DHT22;2310;49.978;8.742;2023-03-01T14:07:51;10.50;46.20
4596;DHT22;2310;49.978;8.742;2023-03-01T14:12:23;10.50;47.00
4596;DHT22;2310;49.978;8.742;2023-03-01T14:16:19;10.50;46.20
4596;DHT22;2310;49.978;8.742;2023-03-01T14:20:22;10.60;46.80
4596;DHT22;2310;49.978;8.742;2023-03-01T14:24:23;10.60;47.20
4596;DHT22;2310;49.978;8.742;2023-03-01T14:28:29;10.60;47.70
4596;DHT22;2310;49.978;8.742;2023-03-01T14:32:31;10.50;47.90
4596;DHT22;2310;49.978;8.742;2023-03-01T14:36:34;10.50;48.30
4596;DHT22;2310;49.978;8.742;2023-03-01T14:40:36;10.30;48.80
4596;DHT22;2310;49.978;8.742;2023-03-01T14:44:38;10.20;48.70
4596;DHT22;2310;49.978;8.742;2023-03-01T14:48:39;10.00;49.20
4596;DHT22;2310;49.978;8.742;2023-03-01T14:52:43;9.90;50.40
4596;DHT22;2310;49.978;8.742;2023-03-01T14:56:46;9.90;50.90
4596;DHT22;2310;49.978;8.742;2023-03-01T15:00:55;9.80;51.00
4596;DHT22;2310;49.978;8.742;2023-03-01T15:04:55;9.80;51.00
4596;DHT22;2310;49.978;8.742;2023-03-01T15:08:57;9.70;51.80
4596;DHT22;2310;49.978;8.742;2023-03-01T15:13:14;9.60;51.30
4596;DHT22;2310;49.978;8.742;2023-03-01T15:17:39;9.80;52.20
4596;DHT22;2310;49.978;8.742;2023-03-01T15:21:35;10.00;50.70
4596;DHT22;2310;49.978;8.742;2023-03-01T15:25:37;9.90;51.50
4596;DHT22;2310;49.978;8.742;2023-03-01T15:29:39;9.80;51.30
4596;DHT22;2310;49.978;8.742;2023-03-01T15:33:41;9.70;51.40
4596;DHT22;2310;49.978;8.742;2023-03-01T15:37:48;9.80;51.80
4596;DHT22;2310;49.978;8.742;2023-03-01T15:41:50;9.70;51.70
4596;DHT22;2310;49.978;8.742;2023-03-01T15:45:57;9.70;52.20
4596;DHT22;2310;49.978;8.742;2023-03-01T15:49:59;9.70;52.80
4596;DHT22;2310;49.978;8.742;2023-03-01T15:54:17;9.60;53.50
4596;DHT22;2310;49.978;8.742;2023-03-01T15:58:21;9.50;53.50
4596;DHT22;2310;49.978;8.742;2023-03-01T16:02:23;9.40;53.50
4596;DHT22;2310;49.978;8.742;2023-03-01T16:06:25;9.40;54.70
4596;DHT22;2310;49.978;8.742;2023-03-01T16:10:27;9.20;54.30
4596;DHT22;2310;49.978;8.742;2023-03-01T16:14:28;9.10;53.90
4596;DHT22;2310;49.978;8.742;2023-03-01T16:18:30;8.90;54.60
4596;DHT22;2310;49.978;8.742;2023-03-01T16:22:31;8.70;55.10
4596;DHT22;2310;49.978;8.742;2023-03-01T16:26:32;8.70;55.80
4596;DHT22;2310;49.978;8.742;2023-03-01T16:30:34;8.70;56.40
4596;DHT22;2310;49.978;8.742;2023-03-01T16:34:37;8.40;56.90
4596;DHT22;2310;49.978;8.742;2023-03-01T16:38:39;8.20;58.20
4596;DHT22;2310;49.978;8.742;2023-03-01T16:42:40;8.10;58.90
4596;DHT22;2310;49.978;8.742;2023-03-01T16:46:42;8.00;60.30
4596;DHT22;2310;49.978;8.742;2023-03-01T16:50:44;8.00;60.70
4596;DHT22;2310;49.978;8.742;2023-03-01T16:54:45;8.00;62.20
4596;DHT22;2310;49.978;8.742;2023-03-01T16:58:47;7.80;63.10
4596;DHT22;2310;49.978;8.742;2023-03-01T17:02:48;7.80;64.50
4596;DHT22;2310;49.978;8.742;2023-03-01T17:06:49;7.70;65.00
4596;DHT22;2310;49.978;8.742;2023-03-01T17:10:51;7.50;66.50
4596;DHT22;2310;49.978;8.742;2023-03-01T17:14:52;7.50;68.00
4596;DHT22;2310;49.978;8.742;2023-03-01T17:18:53;7.40;68.80
4596;DHT22;2310;49.978;8.742;2023-03-01T17:22:54;7.40;70.00
4596;DHT22;2310;49.978;8.742;2023-03-01T17:26:55;7.50;76.60
4596;DHT22;2310;49.978;8.742;2023-03-01T17:30:58;7.30;76.40
4596;DHT22;2310;49.978;8.742;2023-03-01T17:34:59;7.30;77.00
4596;DHT22;2310;49.978;8.742;2023-03-01T17:39:00;7.30;78.50
4596;DHT22;2310;49.978;8.742;2023-03-01T17:43:01;7.30;77.20
4596;DHT22;2310;49.978;8.742;2023-03-01T17:47:04;7.20;78.20
4596;DHT22;2310;49.978;8.742;2023-03-01T17:51:06;7.10;78.90
4596;DHT22;2310;49.978;8.742;2023-03-01T17:55:09;7.10;80.10
4596;DHT22;2310;49.978;8.742;2023-03-01T17:59:10;7.00;80.20
4596;DHT22;2310;49.978;8.742;2023-03-01T18:03:12;6.80;81.70
4596;DHT22;2310;49.978;8.742;2023-03-01T18:07:13;6.70;84.10
4596;DHT22;2310;49.978;8.742;2023-03-01T18:11:14;6.70;83.00
4596;DHT22;2310;49.978;8.742;2023-03-01T18:15:15;6.50;84.10
4596;DHT22;2310;49.978;8.742;2023-03-01T18:19:18;6.50;85.70
4596;DHT22;2310;49.978;8.742;2023-03-01T18:23:21;6.50;85.00
4596;DHT22;2310;49.978;8.742;2023-03-01T18:27:22;6.50;85.90
4596;DHT22;2310;49.978;8.742;2023-03-01T18:31:23;6.50;91.00
4596;DHT22;2310;49.978;8.742;2023-03-01T18:35:25;6.40;88.00
4596;DHT22;2310;49.978;8.742;2023-03-01T18:39:26;6.30;88.70
4596;DHT22;2310;49.978;8.742;2023-03-01T18:43:27;6.40;87.60
4596;DHT22;2310;49.978;8.742;2023-03-01T18:47:29;6.30;86.70
4596;DHT22;2310;49.978;8.742;2023-03-01T18:51:31;6.20;86.40
4596;DHT22;2310;49.978;8.742;2023-03-01T18:55:36;6.00;87.20
4596;DHT22;2310;49.978;8.742;2023-03-01T18:59:38;6.10;87.40
4596;DHT22;2310;49.978;8.742;2023-03-01T19:03:39;6.00;87.90
4596;DHT22;2310;49.978;8.742;2023-03-01T19:07:40;5.80;87.90
4596;DHT22;2310;49.978;8.742;2023-03-01T19:11:41;5.90;88.90
4596;DHT22;2310;49.978;8.742;2023-03-01T19:15:43;5.80;89.00
4596;DHT22;2310;49.978;8.742;2023-03-01T19:19:44;5.70;90.20
4596;DHT22;2310;49.978;8.742;2023-03-01T19:23:47;5.80;90.30
4596;DHT22;2310;49.978;8.742;2023-03-01T19:27:49;5.70;90.60
4596;DHT22;2310;49.978;8.742;2023-03-01T19:31:50;5.60;91.40
4596;DHT22;2310;49.978;8.742;2023-03-01T19:35:52;5.50;91.40
4596;DHT22;2310;49.978;8.742;2023-03-01T19:39:55;5.50;91.90
4596;DHT22;2310;49.978;8.742;2023-03-01T19:43:56;5.50;92.30
4596;DHT22;2310;49.978;8.742;2023-03-01T19:47:58;5.50;92.80
4596;DHT22;2310;49.978;8.742;2023-03-01T19:51:59;5.40;93.30
4596;DHT22;2310;49.978;8.742;2023-03-01T19:56:01;5.10;95.20
4596;DHT22;2310;49.978;8.742;2023-03-01T20:00:04;5.20;95.60
4596;DHT22;2310;49.978;8.742;2023-03-01T20:04:06;5.20;96.50
4596;DHT22;2310;49.978;8.742;2023-03-01T20:08:09;5.30;95.20
4596;DHT22;2310;49.978;8.742;2023-03-01T20:12:10;5.30;95.20
4596;DHT22;2310;49.978;8.742;2023-03-01T20:16:18;5.20;96.40
4596;DHT22;2310;49.978;8.742;2023-03-01T20:20:16;5.20;96.50
4596;DHT22;2310;49.978;8.742;2023-03-01T20:24:17;5.20;96.40
4596;DHT22;2310;49.978;8.742;2023-03-01T20:28:18;5.10;96.90
4596;DHT22;2310;49.978;8.742;2023-03-01T20:32:20;5.20;97.40
4596;DHT22;2310;49.978;8.742;2023-03-01T20:36:21;5.10;97.40
4596;DHT22;2310;49.978;8.742;2023-03-01T20:40:22;5.00;98.00
4596;DHT22;2310;49.978;8.742;2023-03-01T20:44:25;5.10;99.10
4596;DHT22;2310;49.978;8.742;2023-03-01T20:48:26;5.10;99.10
4596;DHT22;2310;49.978;8.742;2023-03-01T20:52:28;5.00;99.90
4596;DHT22;2310;49.978;8.742;2023-03-01T20:56:31;4.90;99.90
4596;DHT22;2310;49.978;8.742;2023-03-01T21:00:32;4.70;99.90
4596;DHT22;2310;49.978;8.742;2023-03-01T21:04:33;4.70;99.90
4596;DHT22;2310;49.978;8.742;2023-03-01T21:08:35;4.70;99.90
4596;DHT22;2310;49.978;8.742;2023-03-01T21:12:36;4.50;99.90
4596;DHT22;2310;49.978;8.742;2023-03-01T21:16:38;4.60;99.90
4596;DHT22;2310;49.978;8.742;2023-03-01T21:20:39;4.50;99.90
4596;DHT22;2310;49.978;8.742;2023-03-01T21:24:42;4.40;99.90
4596;DHT22;2310;49.978;8.742;2023-03-01T21:28:43;4.30;99.90
4596;DHT22;2310;49.978;8.742;2023-03-01T21:32:44;4.20;99.90
4596;DHT22;2310;49.978;8.742;2023-03-01T21:36:45;4.30;99.90
4596;DHT22;2310;49.978;8.742;2023-03-01T21:40:47;4.30;99.90
4596;DHT22;2310;49.978;8.742;2023-03-01T21:44:48;4.30;99.90
4596;DHT22;2310;49.978;8.742;2023-03-01T21:48:50;4.30;99.90
4596;DHT22;2310;49.978;8.742;2023-03-01T21:52:52;4.40;99.90
4596;DHT22;2310;49.978;8.742;2023-03-01T21:56:53;4.30;99.90
4596;DHT22;2310;49.978;8.742;2023-03-01T22:00:54;4.40;99.90
4596;DHT22;2310;49.978;8.742;2023-03-01T22:04:56;4.20;99.90
4596;DHT22;2310;49.978;8.742;2023-03-01T22:08:59;4.10;99.90
4596;DHT22;2310;49.978;8.742;2023-03-01T22:13:01;4.10;99.90
4596;DHT22;2310;49.978;8.742;2023-03-01T22:17:02;4.10;99.90
4596;DHT22;2310;49.978;8.742;2023-03-01T22:21:04;4.20;99.90
4596;DHT22;2310;49.978;8.742;2023-03-01T22:25:07;4.20;99.90
4596;DHT22;2310;49.978;8.742;2023-03-01T22:29:11;4.10;99.90
4596;DHT22;2310;49.978;8.742;2023-03-01T22:33:13;4.10;99.90
4596;DHT22;2310;49.978;8.742;2023-03-01T22:37:14;4.00;99.90
4596;DHT22;2310;49.978;8.742;2023-03-01T22:41:15;4.00;99.90
4596;DHT22;2310;49.978;8.742;2023-03-01T22:45:17;3.90;99.90
4596;DHT22;2310;49.978;8.742;2023-03-01T22:49:19;3.80;99.90
4596;DHT22;2310;49.978;8.742;2023-03-01T22:53:20;3.90;99.90
4596;DHT22;2310;49.978;8.742;2023-03-01T22:57:21;3.70;99.90
4596;DHT22;2310;49.978;8.742;2023-03-01T23:01:24;3.70;99.90
4596;DHT22;2310;49.978;8.742;2023-03-01T23:05:25;3.60;99.90
4596;DHT22;2310;49.978;8.742;2023-03-01T23:09:29;3.60;99.90
4596;DHT22;2310;49.978;8.742;2023-03-01T23:13:30;3.60;99.90
4596;DHT22;2310;49.978;8.742;2023-03-01T23:17:32;3.60;99.90
4596;DHT22;2310;49.978;8.742;2023-03-01T23:21:33;3.70;99.90
4596;DHT22;2310;49.978;8.742;2023-03-01T23:25:35;3.80;99.90
4596;DHT22;2310;49.978;8.742;2023-03-01T23:29:36;3.80;99.90
4596;DHT22;2310;49.978;8.742;2023-03-01T23:33:37;3.90;99.90
4596;DHT22;2310;49.978;8.742;2023-03-01T23:37:39;3.80;99.90
4596;DHT22;2310;49.978;8.742;2023-03-01T23:41:40;3.70;99.90
4596;DHT22;2310;49.978;8.742;2023-03-01T23:45:41;3.80;99.90
4596;DHT22;2310;49.978;8.742;2023-03-01T23:49:43;3.70;99.90
4596;DHT22;2310;49.978;8.742;2023-03-01T23:53:47;3.80;99.90
4596;DHT22;2310;49.978;8.742;2023-03-01T23:57:50;3.70;99.90
